Time;durP1;ratioP1;P1;durP2;ratioP2;P2;SDS_P1;SDS_P2;PMS_P1;PMS_P2;Temp;Humidity;BMP_temperature;BMP_pressure;BME280_temperature;BME280_humidity;BME280_pressure;Samples;Min_cycle;Max_cycle;Signal;HPM_P1;HPM_P2
2022/10/06 00:01:01;;;;;;;2.78;0.85;;;;;;;;;;4871522;29;20505;-83
2022/10/06 00:03:45;;;;;;;5.22;0.75;;;;;;;;;;4881651;29;20391;-84
2022/10/06 00:06:30;;;;;;;1.48;0.70;;;;;;;;;;4855830;29;20052;-84
2022/10/06 00:09:31;;;;;;;1.30;0.80;;;;;;;;;;4847284;29;20045;-85
2022/10/06 00:12:25;;;;;;;1.85;0.57;;;;;;;;;;4854059;29;20056;-84
2022/10/06 00:15:10;;;;;;;2.45;0.65;;;;;;;;;;4839604;29;20153;-85
2022/10/06 00:18:31;;;;;;;1.35;0.50;;;;;;;;;;4858063;29;20045;-85
2022/10/06 00:21:57;;;;;;;1.88;0.63;;;;;;;;;;4872735;29;20045;-84
2022/10/06 00:25:27;;;;;;;1.60;0.55;;;;;;;;;;4872194;29;20569;-86
2022/10/06 00:29:33;;;;;;;2.75;0.68;;;;;;;;;;4870788;29;20056;-84
2022/10/06 00:33:56;;;;;;;0.90;0.50;;;;;;;;;;4871587;29;20056;-84
2022/10/06 00:38:14;;;;;;;1.92;0.40;;;;;;;;;;4869618;29;20072;-85
2022/10/06 00:42:41;;;;;;;3.87;0.60;;;;;;;;;;4866993;29;20059;-85
2022/10/06 00:46:59;;;;;;;1.35;0.60;;;;;;;;;;4865952;29;20309;-84
2022/10/06 00:51:25;;;;;;;1.85;0.50;;;;;;;;;;4866123;29;20059;-83
2022/10/06 00:55:34;;;;;;;1.13;0.55;;;;;;;;;;4866734;29;20049;-84
2022/10/06 00:59:41;;;;;;;3.13;0.80;;;;;;;;;;4865804;29;20065;-83
2022/10/06 01:02:47;;;;;;;4.93;0.70;;;;;;;;;;4865604;29;20121;-85
2022/10/06 01:05:51;;;;;;;1.57;0.67;;;;;;;;;;4838072;29;20125;-85
2022/10/06 01:10:16;;;;;;;3.28;0.88;;;;;;;;;;4852358;29;20399;-84
2022/10/06 01:14:25;;;;;;;2.97;0.50;;;;;;;;;;4887599;29;20044;-84
2022/10/06 01:17:39;;;;;;;1.33;0.63;;;;;;;;;;4859824;29;20117;-84
2022/10/06 01:21:48;;;;;;;1.85;0.77;;;;;;;;;;4887829;29;20613;-84
2022/10/06 01:25:56;;;;;;;5.25;1.00;;;;;;;;;;4887347;29;20049;-83
2022/10/06 01:30:09;;;;;;;2.20;0.63;;;;;;;;;;4888614;29;20071;-83
2022/10/06 01:33:58;;;;;;;2.58;0.70;;;;;;;;;;4832327;29;20054;-85
2022/10/06 01:36:50;;;;;;;4.00;0.70;;;;;;;;;;4819801;29;20201;-85
2022/10/06 01:40:14;;;;;;;3.17;1.08;;;;;;;;;;4811713;29;20050;-85
2022/10/06 01:43:55;;;;;;;2.28;0.60;;;;;;;;;;4813808;29;20083;-85
2022/10/06 01:47:33;;;;;;;1.65;0.30;;;;;;;;;;4809429;29;20053;-84
2022/10/06 01:50:20;;;;;;;0.82;0.45;;;;;;;;;;4817904;29;20063;-85
2022/10/06 01:54:26;;;;;;;2.58;0.40;;;;;;;;;;4817257;29;20098;-85
2022/10/06 01:57:10;;;;;;;3.30;0.60;;;;;;;;;;4828736;29;20046;-85
2022/10/06 02:00:21;;;;;;;4.18;0.73;;;;;;;;;;4793419;29;20077;-85
2022/10/06 02:03:46;;;;;;;3.03;0.38;;;;;;;;;;4792609;29;20140;-85
2022/10/06 02:06:56;;;;;;;1.50;0.50;;;;;;;;;;4838824;29;20670;-85
2022/10/06 02:10:00;;;;;;;1.85;0.40;;;;;;;;;;4821128;29;20088;-86
2022/10/06 02:13:03;;;;;;;1.40;0.40;;;;;;;;;;4839836;29;20042;-85
2022/10/06 02:16:34;;;;;;;3.08;0.50;;;;;;;;;;4843538;29;20046;-85
2022/10/06 02:20:01;;;;;;;16.38;1.42;;;;;;;;;;4831374;29;20085;-85
2022/10/06 02:23:23;;;;;;;1.70;0.40;;;;;;;;;;4850587;29;20053;-84
2022/10/06 02:27:27;;;;;;;6.85;0.60;;;;;;;;;;4870236;29;20041;-85
2022/10/06 02:30:39;;;;;;;2.42;0.50;;;;;;;;;;4863181;29;20042;-85
2022/10/06 02:34:07;;;;;;;0.95;0.38;;;;;;;;;;4867754;29;20049;-84
2022/10/06 02:37:16;;;;;;;4.18;0.80;;;;;;;;;;4865978;29;20145;-85
2022/10/06 02:40:27;;;;;;;3.90;0.65;;;;;;;;;;4867193;29;20121;-84
2022/10/06 02:43:54;;;;;;;4.65;1.20;;;;;;;;;;4878255;29;20064;-84
2022/10/06 02:47:31;;;;;;;3.05;0.50;;;;;;;;;;4874954;29;20069;-84
2022/10/06 02:51:38;;;;;;;2.28;0.82;;;;;;;;;;4877626;29;20040;-84
2022/10/06 02:54:24;;;;;;;3.92;0.50;;;;;;;;;;4875866;29;20052;-85
2022/10/06 02:57:25;;;;;;;4.57;0.85;;;;;;;;;;4870030;29;20109;-83
2022/10/06 03:00:13;;;;;;;6.18;0.75;;;;;;;;;;4854636;29;20800;-84
2022/10/06 03:03:05;;;;;;;4.28;0.80;;;;;;;;;;4830689;29;20044;-84
2022/10/06 03:06:44;;;;;;;2.28;0.60;;;;;;;;;;4877116;29;20049;-84
2022/10/06 03:09:37;;;;;;;2.92;0.90;;;;;;;;;;4879688;29;20132;-84
2022/10/06 03:12:33;;;;;;;5.10;0.55;;;;;;;;;;4875468;29;20561;-84
2022/10/06 03:15:15;;;;;;;7.45;0.88;;;;;;;;;;4847904;29;20387;-85
2022/10/06 03:18:32;;;;;;;5.32;0.77;;;;;;;;;;4874561;29;20132;-83
2022/10/06 03:21:39;;;;;;;3.10;0.70;;;;;;;;;;4865746;29;20053;-85
2022/10/06 03:24:34;;;;;;;4.47;0.90;;;;;;;;;;4853025;29;20080;-84
2022/10/06 03:27:15;;;;;;;4.82;0.95;;;;;;;;;;4846603;29;20041;-84
2022/10/06 03:30:47;;;;;;;5.55;1.10;;;;;;;;;;4862461;29;20052;-85
2022/10/06 03:33:50;;;;;;;7.45;1.00;;;;;;;;;;4876204;29;20052;-84
2022/10/06 03:37:18;;;;;;;2.13;0.70;;;;;;;;;;4874931;29;20059;-84
2022/10/06 03:40:28;;;;;;;5.32;0.90;;;;;;;;;;4875774;29;20056;-84
2022/10/06 03:43:58;;;;;;;7.13;1.30;;;;;;;;;;4863928;29;20080;-84
2022/10/06 03:46:41;;;;;;;3.97;1.00;;;;;;;;;;4845682;29;20506;-84
2022/10/06 03:50:50;;;;;;;2.85;0.75;;;;;;;;;;4856381;29;20421;-83
2022/10/06 03:53:53;;;;;;;4.03;0.88;;;;;;;;;;4871280;29;20073;-85
2022/10/06 03:58:10;;;;;;;6.00;0.88;;;;;;;;;;4862048;29;20080;-84
2022/10/06 04:01:51;;;;;;;4.57;0.98;;;;;;;;;;4869635;29;20057;-84
2022/10/06 04:04:40;;;;;;;5.60;0.77;;;;;;;;;;4841019;29;20060;-85
2022/10/06 04:07:47;;;;;;;8.88;1.13;;;;;;;;;;4854947;29;20048;-85
2022/10/06 04:10:34;;;;;;;6.95;1.15;;;;;;;;;;4854627;29;20100;-84
2022/10/06 04:14:13;;;;;;;4.07;0.98;;;;;;;;;;4839473;29;20049;-84
2022/10/06 04:16:58;;;;;;;7.63;1.25;;;;;;;;;;4817141;29;20054;-85
2022/10/06 04:20:08;;;;;;;4.90;1.20;;;;;;;;;;4838471;29;20114;-83
2022/10/06 04:23:15;;;;;;;6.05;0.98;;;;;;;;;;4846311;29;20045;-84
2022/10/06 04:27:28;;;;;;;5.60;1.00;;;;;;;;;;4840761;29;20557;-84
2022/10/06 04:31:41;;;;;;;3.63;0.70;;;;;;;;;;4848268;29;20056;-84
2022/10/06 04:34:55;;;;;;;8.07;0.98;;;;;;;;;;4840055;29;20148;-84
2022/10/06 04:38:24;;;;;;;5.70;0.98;;;;;;;;;;4830886;29;20104;-83
2022/10/06 04:41:15;;;;;;;4.30;0.95;;;;;;;;;;4848694;29;20057;-83
2022/10/06 04:44:20;;;;;;;3.42;1.13;;;;;;;;;;4829717;29;20131;-84
2022/10/06 04:47:32;;;;;;;4.82;1.30;;;;;;;;;;4848395;29;20055;-83
2022/10/06 04:51:44;;;;;;;8.90;1.63;;;;;;;;;;4865539;29;20541;-83
2022/10/06 04:54:33;;;;;;;3.22;1.00;;;;;;;;;;4834564;29;20053;-84
2022/10/06 04:57:22;;;;;;;8.10;1.40;;;;;;;;;;4824022;29;20058;-83
2022/10/06 05:00:54;;;;;;;7.68;1.67;;;;;;;;;;4827893;29;20057;-83
2022/10/06 05:04:02;;;;;;;6.43;1.08;;;;;;;;;;4874297;29;20049;-83
2022/10/06 05:07:06;;;;;;;7.00;1.23;;;;;;;;;;4859783;29;20041;-84
2022/10/06 05:10:23;;;;;;;7.82;1.40;;;;;;;;;;4845623;29;20049;-84
2022/10/06 05:13:07;;;;;;;6.80;1.00;;;;;;;;;;4869384;29;20052;-83
2022/10/06 05:16:16;;;;;;;3.75;1.00;;;;;;;;;;4871988;29;20045;-85
2022/10/06 05:19:27;;;;;;;8.35;1.02;;;;;;;;;;4868058;29;20112;-85
2022/10/06 05:22:19;;;;;;;8.75;0.95;;;;;;;;;;4869353;29;20048;-84
2022/10/06 05:25:02;;;;;;;3.95;1.20;;;;;;;;;;4871509;29;20060;-85
2022/10/06 05:27:47;;;;;;;10.23;1.30;;;;;;;;;;4869403;29;20045;-84
2022/10/06 05:30:27;;;;;;;9.80;1.75;;;;;;;;;;4867718;29;20056;-83
2022/10/06 05:32:55;;;;;;;7.53;1.10;;;;;;;;;;4871479;29;20045;-84
2022/10/06 05:35:29;;;;;;;6.60;1.48;;;;;;;;;;4887478;29;20045;-84
2022/10/06 05:38:03;;;;;;;8.18;1.42;;;;;;;;;;4871106;29;20510;-85
2022/10/06 05:40:31;;;;;;;5.32;1.10;;;;;;;;;;4885544;29;20069;-84
2022/10/06 05:43:03;;;;;;;7.50;1.17;;;;;;;;;;4886587;29;20037;-84
2022/10/06 05:46:16;;;;;;;5.55;1.02;;;;;;;;;;4872255;29;20112;-84
2022/10/06 05:48:59;;;;;;;6.93;1.35;;;;;;;;;;4869433;29;20075;-84
2022/10/06 05:52:02;;;;;;;10.85;1.27;;;;;;;;;;4882711;29;20111;-84
2022/10/06 05:54:39;;;;;;;12.30;1.63;;;;;;;;;;4857586;29;20399;-83
2022/10/06 05:57:12;;;;;;;5.40;0.73;;;;;;;;;;4870838;29;20048;-84
2022/10/06 05:59:56;;;;;;;7.63;1.65;;;;;;;;;;4869001;29;20635;-84
2022/10/06 06:02:39;;;;;;;8.40;1.30;;;;;;;;;;4872904;29;20045;-84
2022/10/06 06:05:25;;;;;;;8.70;1.90;;;;;;;;;;4871563;29;20188;-82
2022/10/06 06:08:09;;;;;;;9.05;1.13;;;;;;;;;;4855101;29;20196;-83
2022/10/06 06:11:07;;;;;;;11.95;1.95;;;;;;;;;;4857621;29;20433;-83
2022/10/06 06:18:04;;;;;;;6.82;1.77;;;;;;;;;;4872324;29;20490;-83
2022/10/06 06:20:54;;;;;;;11.15;1.70;;;;;;;;;;4873382;29;20608;-84
2022/10/06 06:23:24;;;;;;;6.80;1.20;;;;;;;;;;4865871;29;20521;-83
2022/10/06 06:26:08;;;;;;;10.90;1.65;;;;;;;;;;4868574;29;20044;-84
2022/10/06 06:29:02;;;;;;;7.00;1.63;;;;;;;;;;4880773;29;20049;-84
2022/10/06 06:31:49;;;;;;;6.72;1.08;;;;;;;;;;4851674;29;20048;-84
2022/10/06 06:34:43;;;;;;;8.35;1.08;;;;;;;;;;4863402;29;20037;-84
2022/10/06 06:37:14;;;;;;;9.32;1.40;;;;;;;;;;4869955;29;20037;-82
2022/10/06 06:39:49;;;;;;;12.63;2.13;;;;;;;;;;4883961;29;20056;-83
2022/10/06 06:42:23;;;;;;;6.07;1.25;;;;;;;;;;4850846;29;20101;-84
2022/10/06 06:45:31;;;;;;;11.30;1.13;;;;;;;;;;4873755;29;20049;-82
2022/10/06 06:49:22;;;;;;;7.47;1.15;;;;;;;;;;4869908;29;20174;-82
2022/10/06 06:51:57;;;;;;;4.43;0.90;;;;;;;;;;4867681;29;20053;-84
2022/10/06 06:54:27;;;;;;;8.93;1.30;;;;;;;;;;4875374;29;21953;-84
2022/10/06 06:57:01;;;;;;;6.13;1.35;;;;;;;;;;4873385;29;20520;-84
2022/10/06 06:59:33;;;;;;;7.72;1.25;;;;;;;;;;4867510;29;20132;-83
2022/10/06 07:02:02;;;;;;;7.70;1.45;;;;;;;;;;4868830;29;20040;-83
2022/10/06 07:04:37;;;;;;;5.93;1.50;;;;;;;;;;4854760;29;20494;-83
2022/10/06 07:07:10;;;;;;;6.32;1.20;;;;;;;;;;4871480;29;20051;-83
2022/10/06 07:09:42;;;;;;;6.55;1.10;;;;;;;;;;4873342;29;20045;-83
2022/10/06 07:12:11;;;;;;;6.95;1.40;;;;;;;;;;4887430;29;20037;-83
2022/10/06 07:27:08;;;;;;;5.80;1.25;;;;;;;;;;4889961;29;20048;-83
2022/10/06 07:29:36;;;;;;;12.43;1.20;;;;;;;;;;4874887;29;20041;-84
2022/10/06 07:32:05;;;;;;;5.93;1.75;;;;;;;;;;4872405;29;20048;-83
2022/10/06 07:34:35;;;;;;;9.88;1.23;;;;;;;;;;4886126;29;20584;-84
2022/10/06 07:37:28;;;;;;;10.88;2.20;;;;;;;;;;4870288;29;20033;-84
2022/10/06 07:39:57;;;;;;;7.53;1.20;;;;;;;;;;4874173;29;20406;-85
2022/10/06 07:42:25;;;;;;;6.60;1.05;;;;;;;;;;4874876;29;20121;-84
2022/10/06 07:47:41;;;;;;;7.05;1.10;;;;;;;;;;4887297;29;20041;-84
2022/10/06 07:50:15;;;;;;;9.50;1.35;;;;;;;;;;4860939;29;20049;-82
2022/10/06 07:52:49;;;;;;;7.88;1.20;;;;;;;;;;4859551;29;20414;-82
2022/10/06 07:55:17;;;;;;;10.30;2.05;;;;;;;;;;4874671;29;20044;-82
2022/10/06 08:01:25;;;;;;;6.63;1.10;;;;;;;;;;4882300;29;20130;-82
2022/10/06 08:05:07;;;;;;;6.47;1.08;;;;;;;;;;4874024;29;20096;-82
2022/10/06 08:09:29;;;;;;;4.50;1.05;;;;;;;;;;4875280;29;20513;-82
2022/10/06 08:12:31;;;;;;;6.68;1.08;;;;;;;;;;4884582;29;20494;-84
2022/10/06 08:14:49;;;;;;;11.73;1.60;;;;;;;;;;4881464;29;20037;-84
2022/10/06 08:17:23;;;;;;;11.82;1.67;;;;;;;;;;4874295;29;20168;-84
2022/10/06 08:19:53;;;;;;;9.93;1.35;;;;;;;;;;4871431;29;20109;-84
2022/10/06 08:22:46;;;;;;;5.10;1.23;;;;;;;;;;4873282;29;20593;-84
2022/10/06 08:25:23;;;;;;;9.82;1.95;;;;;;;;;;4874369;29;20041;-84
2022/10/06 08:27:51;;;;;;;13.25;1.92;;;;;;;;;;4873016;29;20093;-84
2022/10/06 08:30:22;;;;;;;16.27;1.88;;;;;;;;;;4873353;29;20045;-83
2022/10/06 08:32:51;;;;;;;5.07;1.17;;;;;;;;;;4883689;29;20045;-84
2022/10/06 08:36:16;;;;;;;4.50;1.02;;;;;;;;;;4871996;29;20176;-83
2022/10/06 08:39:31;;;;;;;12.70;1.40;;;;;;;;;;4879168;29;20159;-83
2022/10/06 08:42:41;;;;;;;10.52;1.55;;;;;;;;;;4869707;29;20045;-84
2022/10/06 08:45:34;;;;;;;9.85;1.42;;;;;;;;;;4858278;29;20122;-82
2022/10/06 08:48:18;;;;;;;11.68;1.88;;;;;;;;;;4871938;29;20056;-82
2022/10/06 08:50:57;;;;;;;10.57;1.42;;;;;;;;;;4874742;29;20390;-82
2022/10/06 08:53:45;;;;;;;7.95;1.08;;;;;;;;;;4878696;29;20063;-83
2022/10/06 08:56:23;;;;;;;9.88;1.25;;;;;;;;;;4874167;29;20065;-84
2022/10/06 08:59:05;;;;;;;13.60;1.80;;;;;;;;;;4872476;29;20050;-84
2022/10/06 09:01:48;;;;;;;4.70;0.82;;;;;;;;;;4873219;29;20109;-84
2022/10/06 09:04:49;;;;;;;5.93;1.15;;;;;;;;;;4873440;29;20819;-84
2022/10/06 09:07:31;;;;;;;6.70;1.50;;;;;;;;;;4858760;29;20451;-84
2022/10/06 09:10:19;;;;;;;5.70;1.88;;;;;;;;;;4870540;29;20052;-84
2022/10/06 09:12:56;;;;;;;6.93;1.33;;;;;;;;;;4876091;29;20068;-84
2022/10/06 09:15:49;;;;;;;8.15;1.50;;;;;;;;;;4884005;29;20045;-84
2022/10/06 09:18:44;;;;;;;7.15;2.25;;;;;;;;;;4872678;29;20052;-84
2022/10/06 09:21:48;;;;;;;13.93;1.38;;;;;;;;;;4873845;29;20057;-85
2022/10/06 09:24:38;;;;;;;8.07;1.70;;;;;;;;;;4887920;29;20069;-84
2022/10/06 09:27:32;;;;;;;8.45;1.58;;;;;;;;;;4871530;29;20397;-84
2022/10/06 09:30:07;;;;;;;9.50;1.50;;;;;;;;;;4870224;29;20053;-84
2022/10/06 09:33:02;;;;;;;7.38;1.67;;;;;;;;;;4871090;29;20037;-84
2022/10/06 09:35:35;;;;;;;7.15;1.40;;;;;;;;;;4871039;29;20048;-84
2022/10/06 09:38:11;;;;;;;14.68;1.48;;;;;;;;;;4871455;29;20825;-84
2022/10/06 09:40:50;;;;;;;4.95;1.00;;;;;;;;;;4857647;29;20068;-84
2022/10/06 09:43:28;;;;;;;18.77;1.83;;;;;;;;;;4869304;29;20037;-84
2022/10/06 09:46:26;;;;;;;5.40;1.20;;;;;;;;;;4871826;29;20052;-84
2022/10/06 09:49:25;;;;;;;7.30;1.05;;;;;;;;;;4870832;29;20041;-84
2022/10/06 09:52:01;;;;;;;11.70;1.83;;;;;;;;;;4883831;29;20036;-84
2022/10/06 09:55:13;;;;;;;7.82;1.10;;;;;;;;;;4872492;29;20041;-85
2022/10/06 09:58:36;;;;;;;6.55;1.13;;;;;;;;;;4871535;29;20044;-84
2022/10/06 10:01:11;;;;;;;5.57;1.17;;;;;;;;;;4868794;29;20513;-84
2022/10/06 10:03:52;;;;;;;10.10;1.58;;;;;;;;;;4868572;29;20095;-84
2022/10/06 10:06:43;;;;;;;8.23;1.35;;;;;;;;;;4873315;29;20033;-84
2022/10/06 10:09:16;;;;;;;8.30;1.90;;;;;;;;;;4871632;29;20045;-84
2022/10/06 10:12:23;;;;;;;6.50;1.23;;;;;;;;;;4883929;29;20573;-85
2022/10/06 10:15:12;;;;;;;5.43;1.10;;;;;;;;;;4869394;29;20037;-84
2022/10/06 10:17:48;;;;;;;7.38;1.45;;;;;;;;;;4852021;29;20057;-84
2022/10/06 10:20:50;;;;;;;8.77;2.13;;;;;;;;;;4872696;29;20095;-84
2022/10/06 10:23:42;;;;;;;7.95;1.38;;;;;;;;;;4869995;29;20041;-84
2022/10/06 10:26:34;;;;;;;6.18;1.00;;;;;;;;;;4881171;29;20060;-84
2022/10/06 10:29:57;;;;;;;7.88;1.10;;;;;;;;;;4878642;29;20056;-85
2022/10/06 10:33:01;;;;;;;9.07;1.10;;;;;;;;;;4870939;29;20207;-84
2022/10/06 10:35:36;;;;;;;6.45;1.30;;;;;;;;;;4855784;29;20048;-84
2022/10/06 10:38:23;;;;;;;12.35;1.20;;;;;;;;;;4858633;29;20470;-84
2022/10/06 10:41:14;;;;;;;8.00;1.25;;;;;;;;;;4854986;29;20096;-84
2022/10/06 10:44:07;;;;;;;12.52;1.88;;;;;;;;;;4840037;29;20045;-82
2022/10/06 10:46:54;;;;;;;6.20;1.45;;;;;;;;;;4853414;29;20052;-84
2022/10/06 10:49:47;;;;;;;8.00;1.23;;;;;;;;;;4864504;29;20501;-84
2022/10/06 10:52:40;;;;;;;6.63;1.35;;;;;;;;;;4861680;29;20049;-85
2022/10/06 10:55:46;;;;;;;10.35;1.50;;;;;;;;;;4857035;29;20112;-84
2022/10/06 10:59:58;;;;;;;8.57;1.13;;;;;;;;;;4882143;29;20101;-82
2022/10/06 11:04:23;;;;;;;8.15;1.40;;;;;;;;;;4876946;29;20057;-82
2022/10/06 11:08:25;;;;;;;7.70;1.48;;;;;;;;;;4873113;29;20049;-83
2022/10/06 11:11:46;;;;;;;;;;;;;;;;;;4884887;29;20061;-83
2022/10/06 11:14:47;;;;;;;10.15;1.60;;;;;;;;;;4886831;29;20003;-83
2022/10/06 11:17:43;;;;;;;4.45;0.73;;;;;;;;;;4875793;29;20041;-83
2022/10/06 11:20:43;;;;;;;7.35;1.73;;;;;;;;;;4886520;29;20061;-84
2022/10/06 11:23:44;;;;;;;6.55;1.13;;;;;;;;;;4871053;29;20075;-83
2022/10/06 11:26:52;;;;;;;9.05;1.45;;;;;;;;;;4872594;29;20049;-84
2022/10/06 11:29:57;;;;;;;6.90;1.20;;;;;;;;;;4890135;29;20040;-84
2022/10/06 11:33:53;;;;;;;5.93;1.60;;;;;;;;;;4873830;29;20045;-83
2022/10/06 11:37:33;;;;;;;5.45;1.08;;;;;;;;;;4869891;29;20410;-82
2022/10/06 11:40:57;;;;;;;4.35;1.15;;;;;;;;;;4873604;29;20052;-83
2022/10/06 11:44:02;;;;;;;10.18;1.98;;;;;;;;;;4859197;29;20418;-82
2022/10/06 11:46:58;;;;;;;8.68;1.20;;;;;;;;;;4857482;29;20056;-84
2022/10/06 11:49:51;;;;;;;12.30;2.17;;;;;;;;;;4857289;29;20093;-84
2022/10/06 11:52:45;;;;;;;7.93;1.15;;;;;;;;;;4844120;29;20056;-83
2022/10/06 11:55:27;;;;;;;7.10;0.93;;;;;;;;;;4842724;29;20053;-83
2022/10/06 11:58:13;;;;;;;7.07;1.10;;;;;;;;;;4857069;29;20484;-82
2022/10/06 12:01:01;;;;;;;6.38;1.30;;;;;;;;;;4852130;29;20052;-82
2022/10/06 12:04:04;;;;;;;5.43;1.00;;;;;;;;;;4824091;29;20128;-84
2022/10/06 12:07:10;;;;;;;5.25;1.17;;;;;;;;;;4859190;29;20570;-84
2022/10/06 12:10:28;;;;;;;9.10;1.50;;;;;;;;;;4886007;29;20087;-85
2022/10/06 12:13:17;;;;;;;7.88;1.05;;;;;;;;;;4871119;29;20049;-83
2022/10/06 12:16:21;;;;;;;7.45;0.90;;;;;;;;;;4888659;29;20037;-84
2022/10/06 12:19:22;;;;;;;6.53;0.90;;;;;;;;;;4887146;29;20056;-84
2022/10/06 12:22:18;;;;;;;5.35;1.05;;;;;;;;;;4886887;29;20080;-83
2022/10/06 12:25:05;;;;;;;4.55;0.90;;;;;;;;;;4882622;29;20166;-83
2022/10/06 12:28:21;;;;;;;6.90;1.00;;;;;;;;;;4873235;29;20049;-83
2022/10/06 12:30:52;;;;;;;3.95;1.20;;;;;;;;;;4851966;29;20085;-83
2022/10/06 12:35:03;;;;;;;6.13;1.42;;;;;;;;;;4853488;29;20079;-82
2022/10/06 12:38:29;;;;;;;8.65;0.90;;;;;;;;;;4853080;29;20057;-84
2022/10/06 12:41:52;;;;;;;7.78;0.90;;;;;;;;;;4842686;29;20053;-85
2022/10/06 12:46:01;;;;;;;4.43;1.00;;;;;;;;;;4779665;29;20047;-83
2022/10/06 12:50:41;;;;;;;6.25;1.02;;;;;;;;;;4757468;30;20166;-83
2022/10/06 12:54:25;;;;;;;6.03;1.02;;;;;;;;;;4744447;30;20113;-84
2022/10/06 12:58:39;;;;;;;6.28;1.42;;;;;;;;;;4707860;30;20061;-85
2022/10/06 13:02:45;;;;;;;5.50;1.67;;;;;;;;;;4654791;30;20138;-84
2022/10/06 13:06:11;;;;;;;4.85;1.02;;;;;;;;;;4642683;30;20070;-84
2022/10/06 13:09:56;;;;;;;5.45;1.25;;;;;;;;;;4654699;30;20050;-83
2022/10/06 13:12:35;;;;;;;6.03;1.00;;;;;;;;;;4655649;30;20964;-85
2022/10/06 13:15:35;;;;;;;4.18;0.95;;;;;;;;;;4649869;30;20077;-82
2022/10/06 13:18:27;;;;;;;6.07;0.88;;;;;;;;;;4656182;30;20843;-82
2022/10/06 13:21:15;;;;;;;9.00;1.25;;;;;;;;;;4684141;30;20524;-82
2022/10/06 13:23:58;;;;;;;6.85;1.00;;;;;;;;;;4670170;30;20171;-82
2022/10/06 13:26:40;;;;;;;5.68;1.00;;;;;;;;;;4715781;30;20061;-82
2022/10/06 13:29:24;;;;;;;10.00;1.35;;;;;;;;;;4717528;30;20061;-82
2022/10/06 13:32:17;;;;;;;4.53;1.50;;;;;;;;;;4717946;30;20187;-82
2022/10/06 13:35:11;;;;;;;4.00;0.88;;;;;;;;;;4774456;29;20679;-82
2022/10/06 13:37:54;;;;;;;7.85;1.50;;;;;;;;;;4825026;29;20057;-82
2022/10/06 13:41:20;;;;;;;6.13;0.90;;;;;;;;;;4834858;29;20193;-82
2022/10/06 13:44:01;;;;;;;7.95;1.42;;;;;;;;;;4865190;29;20538;-84
2022/10/06 13:46:36;;;;;;;4.38;1.00;;;;;;;;;;4866535;29;20049;-83
2022/10/06 13:49:46;;;;;;;4.63;1.20;;;;;;;;;;4872676;29;20075;-83
2022/10/06 13:52:17;;;;;;;6.70;1.45;;;;;;;;;;4871614;29;20041;-83
2022/10/06 13:54:54;;;;;;;8.57;1.20;;;;;;;;;;4886774;29;20068;-83
2022/10/06 13:58:00;;;;;;;6.75;0.90;;;;;;;;;;4870971;29;20041;-83
2022/10/06 14:00:55;;;;;;;7.13;0.80;;;;;;;;;;4873780;29;20072;-83
2022/10/06 14:03:34;;;;;;;4.28;0.95;;;;;;;;;;4885230;29;20126;-84
2022/10/06 14:06:15;;;;;;;4.30;0.90;;;;;;;;;;4886316;29;21090;-83
2022/10/06 14:09:03;;;;;;;3.92;0.75;;;;;;;;;;4874181;29;20037;-83
2022/10/06 14:11:32;;;;;;;7.57;1.15;;;;;;;;;;4862645;29;20246;-83
2022/10/06 14:14:11;;;;;;;5.38;1.35;;;;;;;;;;4865584;29;20049;-83
2022/10/06 14:16:46;;;;;;;3.25;0.77;;;;;;;;;;4865872;29;20041;-84
2022/10/06 14:19:31;;;;;;;8.07;1.05;;;;;;;;;;4866166;29;20123;-82
2022/10/06 14:22:33;;;;;;;6.05;1.05;;;;;;;;;;4881160;29;20037;-82
2022/10/06 14:25:10;;;;;;;5.95;0.88;;;;;;;;;;4881220;29;20514;-83
2022/10/06 14:27:45;;;;;;;5.03;0.88;;;;;;;;;;4881785;29;20048;-84
2022/10/06 14:30:13;;;;;;;8.48;0.88;;;;;;;;;;4883226;29;20502;-84
2022/10/06 14:32:41;;;;;;;6.95;1.15;;;;;;;;;;4868795;29;20045;-84
2022/10/06 14:35:35;;;;;;;5.85;1.10;;;;;;;;;;4871912;29;20048;-83
2022/10/06 14:38:03;;;;;;;5.25;1.10;;;;;;;;;;4866936;29;20037;-84
2022/10/06 14:40:55;;;;;;;3.72;0.77;;;;;;;;;;4868271;29;20036;-84
2022/10/06 14:43:27;;;;;;;8.95;0.82;;;;;;;;;;4869385;29;20041;-84
2022/10/06 14:45:55;;;;;;;3.58;0.68;;;;;;;;;;4854743;29;20442;-82
2022/10/06 14:49:14;;;;;;;3.33;0.80;;;;;;;;;;4871693;29;20132;-82
2022/10/06 14:52:15;;;;;;;7.82;1.23;;;;;;;;;;4874483;29;20049;-82
2022/10/06 14:54:57;;;;;;;4.38;0.90;;;;;;;;;;4872176;29;20052;-82
2022/10/06 14:57:28;;;;;;;8.35;0.75;;;;;;;;;;4862795;29;20049;-82
2022/10/06 15:00:30;;;;;;;4.07;1.05;;;;;;;;;;4871578;29;20041;-82
2022/10/06 15:03:01;;;;;;;5.53;0.85;;;;;;;;;;4870328;29;20110;-83
2022/10/06 15:08:08;;;;;;;3.05;0.82;;;;;;;;;;4882737;29;20168;-84
2022/10/06 15:08:29;;;;;;;5.55;1.75;;;;;;;;;;4871558;29;20037;-84
2022/10/06 15:10:57;;;;;;;10.00;2.20;;;;;;;;;;4867843;29;20065;-84
2022/10/06 15:13:30;;;;;;;3.58;0.68;;;;;;;;;;4869397;29;20087;-83
2022/10/06 15:15:57;;;;;;;10.57;3.08;;;;;;;;;;4870228;29;20060;-84
2022/10/06 15:18:27;;;;;;;5.00;1.48;;;;;;;;;;4870957;29;20124;-84
2022/10/06 15:21:22;;;;;;;15.60;3.15;;;;;;;;;;4871120;29;20121;-84
2022/10/06 15:23:58;;;;;;;5.03;1.40;;;;;;;;;;4870304;29;20052;-83
2022/10/06 15:29:41;;;;;;;8.73;1.13;;;;;;;;;;4871054;29;20056;-84
2022/10/06 15:32:09;;;;;;;4.35;0.80;;;;;;;;;;4859833;29;20056;-83
2022/10/06 15:34:37;;;;;;;6.47;1.23;;;;;;;;;;4867821;29;20049;-82
2022/10/06 15:37:05;;;;;;;4.15;0.80;;;;;;;;;;4869190;29;20407;-83
2022/10/06 15:39:35;;;;;;;7.28;1.00;;;;;;;;;;4869407;29;20132;-83
2022/10/06 15:42:03;;;;;;;4.78;1.00;;;;;;;;;;4869723;29;20071;-83
2022/10/06 15:44:55;;;;;;;10.65;1.50;;;;;;;;;;4886553;29;20040;-83
2022/10/06 15:47:50;;;;;;;8.90;1.60;;;;;;;;;;4873048;29;20837;-84
2022/10/06 15:50:32;;;;;;;3.95;0.70;;;;;;;;;;4851478;29;20052;-83
2022/10/06 15:53:13;;;;;;;3.95;1.08;;;;;;;;;;4872753;29;20049;-84
2022/10/06 15:55:59;;;;;;;4.05;1.00;;;;;;;;;;4863663;29;20055;-83
2022/10/06 15:58:27;;;;;;;7.07;1.10;;;;;;;;;;4870920;29;20133;-82
2022/10/06 16:01:09;;;;;;;4.93;1.20;;;;;;;;;;4872156;29;20455;-83
2022/10/06 16:03:43;;;;;;;3.35;0.93;;;;;;;;;;4870129;29;20072;-84
2022/10/06 16:06:15;;;;;;;7.65;1.60;;;;;;;;;;4873137;29;20109;-84
2022/10/06 16:08:48;;;;;;;8.95;1.40;;;;;;;;;;4859559;29;20569;-83
2022/10/06 16:11:40;;;;;;;4.15;0.77;;;;;;;;;;4875353;29;20045;-84
2022/10/06 16:14:09;;;;;;;6.35;1.00;;;;;;;;;;4873036;29;20075;-84
2022/10/06 16:16:46;;;;;;;4.63;1.15;;;;;;;;;;4868914;29;20594;-83
2022/10/06 16:19:15;;;;;;;4.65;1.00;;;;;;;;;;4871781;29;20045;-84
2022/10/06 16:21:55;;;;;;;5.55;1.20;;;;;;;;;;4889482;29;20033;-83
2022/10/06 16:24:25;;;;;;;5.15;1.00;;;;;;;;;;4869481;29;20140;-83
2022/10/06 16:28:19;;;;;;;3.92;1.10;;;;;;;;;;4876502;29;20599;-82
2022/10/06 16:31:10;;;;;;;7.78;2.05;;;;;;;;;;4858160;29;20084;-83
2022/10/06 16:33:39;;;;;;;4.68;0.80;;;;;;;;;;4859445;29;20109;-83
2022/10/06 16:36:08;;;;;;;4.55;1.02;;;;;;;;;;4848329;29;20050;-84
2022/10/06 16:39:04;;;;;;;6.68;1.13;;;;;;;;;;4840705;29;20041;-83
2022/10/06 16:41:37;;;;;;;3.67;1.17;;;;;;;;;;4840270;29;20045;-83
2022/10/06 16:44:05;;;;;;;3.58;1.10;;;;;;;;;;4841223;29;20058;-84
2022/10/06 16:46:34;;;;;;;4.60;1.70;;;;;;;;;;4859297;29;20049;-84
2022/10/06 16:50:13;;;;;;;5.00;1.00;;;;;;;;;;4841156;29;20083;-82
2022/10/06 16:53:03;;;;;;;6.75;1.17;;;;;;;;;;4825545;29;20053;-83
2022/10/06 16:55:31;;;;;;;5.22;1.30;;;;;;;;;;4844685;29;20061;-82
2022/10/06 16:57:59;;;;;;;6.07;1.17;;;;;;;;;;4856120;29;20509;-83
2022/10/06 17:00:31;;;;;;;4.90;1.00;;;;;;;;;;4863202;29;20052;-83
2022/10/06 17:03:25;;;;;;;5.55;1.13;;;;;;;;;;4866179;29;20045;-83
2022/10/06 17:06:00;;;;;;;3.92;1.08;;;;;;;;;;4873570;29;20048;-84
2022/10/06 17:08:52;;;;;;;6.03;1.20;;;;;;;;;;4888652;29;20112;-84
2022/10/06 17:15:23;;;;;;;5.15;1.80;;;;;;;;;;4853287;29;20092;-83
2022/10/06 17:17:54;;;;;;;10.57;3.10;;;;;;;;;;4836938;29;20129;-83
2022/10/06 17:20:22;;;;;;;8.50;2.38;;;;;;;;;;4853173;29;20140;-84
2022/10/06 17:23:37;;;;;;;6.15;2.33;;;;;;;;;;4852269;29;20045;-83
2022/10/06 17:26:05;;;;;;;6.18;2.00;;;;;;;;;;4851167;29;20064;-84
2022/10/06 17:28:34;;;;;;;11.38;2.20;;;;;;;;;;4850899;29;20144;-84
2022/10/06 17:31:04;;;;;;;6.43;1.60;;;;;;;;;;4851860;29;20053;-84
2022/10/06 17:33:51;;;;;;;6.70;1.85;;;;;;;;;;4850495;29;20150;-84
2022/10/06 17:36:21;;;;;;;7.43;1.60;;;;;;;;;;4851517;29;20053;-84
2022/10/06 17:39:00;;;;;;;4.78;1.50;;;;;;;;;;4838269;29;20050;-84
2022/10/06 17:41:32;;;;;;;5.40;1.60;;;;;;;;;;4851609;29;20116;-85
2022/10/06 17:44:04;;;;;;;8.52;1.60;;;;;;;;;;4851806;29;20068;-85
2022/10/06 17:47:37;;;;;;;5.35;2.15;;;;;;;;;;4851915;29;20060;-84
2022/10/06 17:50:39;;;;;;;8.40;2.30;;;;;;;;;;4843206;29;20608;-85
2022/10/06 17:54:23;;;;;;;6.75;3.22;;;;;;;;;;4874157;29;20136;-84
2022/10/06 17:58:17;;;;;;;9.63;2.65;;;;;;;;;;4873444;29;20041;-84
2022/10/06 18:02:51;;;;;;;9.90;2.90;;;;;;;;;;4864088;29;20049;-84
2022/10/06 18:05:57;;;;;;;7.00;2.33;;;;;;;;;;4872348;29;20072;-85
2022/10/06 18:08:45;;;;;;;8.07;2.80;;;;;;;;;;4884167;29;20041;-84
2022/10/06 18:12:35;;;;;;;8.35;2.55;;;;;;;;;;4872217;29;20119;-84
2022/10/06 18:15:39;;;;;;;7.57;2.67;;;;;;;;;;4877850;29;20627;-84
2022/10/06 18:18:24;;;;;;;6.20;2.72;;;;;;;;;;4854416;29;20045;-83
2022/10/06 18:21:36;;;;;;;6.63;2.50;;;;;;;;;;4872111;29;20045;-85
2022/10/06 18:24:46;;;;;;;9.45;2.53;;;;;;;;;;4857612;29;20482;-84